Time;durP1;ratioP1;P1;durP2;ratioP2;P2;SDS_P1;SDS_P2;PMS_P1;PMS_P2;Temp;Humidity;BMP_temperature;BMP_pressure;BME280_temperature;BME280_humidity;BME280_pressure;Samples;Min_cycle;Max_cycle;Signal;HPM_P1;HPM_P2
2022/04/20 00:00:41;;;;;;;13.73;6.07;;;5.50;1.00;;;;;;5061933;28;20210;-51
2022/04/20 00:03:07;;;;;;;10.00;5.70;;;5.50;1.00;;;;;;5061683;28;20193;-51
2022/04/20 00:05:33;;;;;;;11.87;6.70;;;5.50;1.00;;;;;;5067467;28;20440;-51
2022/04/20 00:08:03;;;;;;;10.77;6.83;;;5.50;1.00;;;;;;5055894;28;20192;-51
2022/04/20 00:10:29;;;;;;;13.00;5.67;;;5.50;1.00;;;;;;5061859;28;20523;-51
2022/04/20 00:12:56;;;;;;;14.03;6.73;;;5.50;1.00;;;;;;5064895;28;20443;-51
2022/04/20 00:15:22;;;;;;;9.10;5.80;;;5.40;1.00;;;;;;5051672;28;20424;-51
2022/04/20 00:17:48;;;;;;;8.60;6.10;;;5.40;1.00;;;;;;5067468;28;20959;-51
2022/04/20 00:20:14;;;;;;;11.13;6.30;;;5.30;1.00;;;;;;5051521;28;20433;-51
2022/04/20 00:22:39;;;;;;;12.13;6.57;;;5.30;1.00;;;;;;5066222;28;20202;-51
2022/04/20 00:25:05;;;;;;;12.33;6.90;;;5.20;1.00;;;;;;5061193;28;20194;-51
2022/04/20 00:27:35;;;;;;;11.23;6.50;;;5.20;1.00;;;;;;5056247;28;20216;-51
2022/04/20 00:30:02;;;;;;;8.33;6.40;;;5.20;1.00;;;;;;5070654;28;20201;-51
2022/04/20 00:32:29;;;;;;;11.70;6.67;;;5.10;1.00;;;;;;5052050;28;20440;-51
2022/04/20 00:34:55;;;;;;;12.00;6.40;;;5.10;1.00;;;;;;5052631;28;20435;-51
2022/04/20 00:37:20;;;;;;;15.43;6.60;;;5.00;1.00;;;;;;5060067;28;20988;-51
2022/04/20 00:39:46;;;;;;;12.30;7.10;;;5.00;1.00;;;;;;5056205;28;20535;-51
2022/04/20 00:42:12;;;;;;;10.97;6.80;;;5.10;1.00;;;;;;5062485;28;20614;-51
2022/04/20 00:44:39;;;;;;;14.97;7.40;;;5.00;1.00;;;;;;5060996;28;20190;-51
2022/04/20 00:47:06;;;;;;;10.93;7.10;;;5.00;1.00;;;;;;5059641;28;20784;-51
2022/04/20 00:49:34;;;;;;;15.20;7.63;;;5.00;1.00;;;;;;5067857;28;20906;-51
2022/04/20 00:52:02;;;;;;;11.60;7.10;;;4.90;1.00;;;;;;5065195;28;20910;-51
2022/04/20 00:54:28;;;;;;;13.90;6.53;;;4.90;1.00;;;;;;5066341;28;20561;-51
2022/04/20 00:56:53;;;;;;;12.10;8.10;;;4.90;1.00;;;;;;5070335;28;20436;-51
2022/04/20 00:59:21;;;;;;;12.73;7.67;;;4.80;1.00;;;;;;5062109;28;20200;-51
2022/04/20 01:01:48;;;;;;;12.63;8.10;;;4.80;1.00;;;;;;5069931;28;20178;-51
2022/04/20 01:04:13;;;;;;;10.83;7.17;;;4.80;1.00;;;;;;5065513;28;20440;-51
2022/04/20 01:06:39;;;;;;;15.97;8.47;;;4.70;1.00;;;;;;5068619;28;20827;-51
2022/04/20 01:09:04;;;;;;;11.13;7.10;;;4.70;1.00;;;;;;5062195;28;20730;-51
2022/04/20 01:11:30;;;;;;;14.43;7.83;;;4.70;1.00;;;;;;5070326;28;20292;-51
2022/04/20 01:13:56;;;;;;;9.70;6.80;;;4.70;1.00;;;;;;5053806;28;20261;-51
2022/04/20 01:16:21;;;;;;;13.10;8.20;;;4.70;1.00;;;;;;5060467;28;20215;-51
2022/04/20 01:18:49;;;;;;;21.90;8.30;;;4.70;1.00;;;;;;5061885;28;20547;-51
2022/04/20 01:21:16;;;;;;;12.23;7.40;;;4.60;1.00;;;;;;5069620;28;20170;-51
2022/04/20 01:23:42;;;;;;;14.67;7.70;;;4.60;1.00;;;;;;5055627;28;20444;-51
2022/04/20 01:26:08;;;;;;;13.07;7.83;;;4.60;1.00;;;;;;5068626;28;20994;-51
2022/04/20 01:28:36;;;;;;;13.73;8.10;;;4.50;1.00;;;;;;5070302;28;20424;-51
2022/04/20 01:31:02;;;;;;;11.33;6.57;;;4.50;1.00;;;;;;5068398;28;20464;-51
2022/04/20 01:33:27;;;;;;;12.87;8.10;;;4.50;1.00;;;;;;5053284;28;20949;-51
2022/04/20 01:35:53;;;;;;;10.03;6.77;;;4.60;1.00;;;;;;5068495;28;20496;-51
2022/04/20 01:38:19;;;;;;;13.03;6.83;;;4.50;1.00;;;;;;5061244;28;20263;-51
2022/04/20 01:40:44;;;;;;;16.63;7.23;;;4.50;1.00;;;;;;5060348;28;20177;-51
2022/04/20 01:43:10;;;;;;;12.40;7.60;;;4.50;1.00;;;;;;5062067;28;20174;-51
2022/04/20 01:45:35;;;;;;;15.93;7.60;;;4.50;1.00;;;;;;5064381;28;20264;-51
2022/04/20 01:48:01;;;;;;;17.03;8.20;;;4.50;1.00;;;;;;5058532;28;20229;-52
2022/04/20 01:50:26;;;;;;;11.90;6.67;;;4.50;1.00;;;;;;5058912;28;20209;-51
2022/04/20 01:52:52;;;;;;;13.40;8.33;;;4.50;1.00;;;;;;5062625;28;20180;-51
2022/04/20 01:55:17;;;;;;;10.83;7.33;;;4.50;1.00;;;;;;5069317;28;20197;-51
2022/04/20 01:57:43;;;;;;;10.20;6.73;;;4.50;1.00;;;;;;5057345;28;20194;-51
2022/04/20 02:00:10;;;;;;;12.53;7.10;;;4.40;1.00;;;;;;5063063;28;20197;-51
2022/04/20 02:02:38;;;;;;;9.43;7.00;;;4.40;1.00;;;;;;5058096;28;20196;-51
2022/04/20 02:05:09;;;;;;;13.03;8.47;;;4.40;1.00;;;;;;5050019;28;20543;-51
2022/04/20 02:07:35;;;;;;;9.90;6.47;;;4.40;1.00;;;;;;5061712;28;20459;-51
2022/04/20 02:10:02;;;;;;;16.07;7.80;;;4.40;1.00;;;;;;5061027;28;20526;-51
2022/04/20 02:12:28;;;;;;;12.43;7.37;;;4.40;1.00;;;;;;5068332;28;20548;-52
2022/04/20 02:14:54;;;;;;;12.33;7.70;;;4.40;1.00;;;;;;5059593;28;20428;-51
2022/04/20 02:17:20;;;;;;;12.43;7.10;;;4.30;1.00;;;;;;5062557;28;20667;-51
2022/04/20 02:19:45;;;;;;;9.77;7.00;;;4.30;1.00;;;;;;5069788;28;20827;-51
2022/04/20 02:22:11;;;;;;;9.87;7.00;;;4.20;1.00;;;;;;5061263;28;21364;-51
2022/04/20 02:24:36;;;;;;;13.70;7.03;;;4.20;1.00;;;;;;5057620;28;20205;-51
2022/04/20 02:27:02;;;;;;;14.53;7.37;;;4.10;1.00;;;;;;5061015;28;20201;-51
2022/04/20 02:29:28;;;;;;;15.43;7.50;;;4.10;1.00;;;;;;5065420;28;20217;-51
2022/04/20 02:31:53;;;;;;;12.87;7.13;;;4.10;1.00;;;;;;5091968;28;20839;-51
2022/04/20 02:34:19;;;;;;;10.07;7.27;;;4.00;6.00;;;;;;5070117;28;20232;-51
2022/04/20 02:36:45;;;;;;;16.00;7.63;;;4.00;1.00;;;;;;5061270;28;20213;-51
2022/04/20 02:39:11;;;;;;;11.40;7.00;;;4.00;1.20;;;;;;5072464;28;20220;-51
2022/04/20 02:41:37;;;;;;;14.47;7.73;;;4.00;1.00;;;;;;5065647;28;20273;-52
2022/04/20 02:44:04;;;;;;;10.30;7.40;;;3.90;2.00;;;;;;5066159;28;20433;-51
2022/04/20 02:46:30;;;;;;;11.07;7.60;;;3.90;1.00;;;;;;5057388;28;20500;-51
2022/04/20 02:48:55;;;;;;;17.70;7.37;;;3.90;1.00;;;;;;5064043;28;20440;-52
2022/04/20 02:51:21;;;;;;;15.00;8.50;;;3.90;15.90;;;;;;5068238;28;20224;-51
2022/04/20 02:53:46;;;;;;;14.47;7.00;;;3.80;12.30;;;;;;5058168;28;20823;-51
2022/04/20 02:56:12;;;;;;;11.17;7.37;;;3.80;1.00;;;;;;5073061;28;20549;-52
2022/04/20 02:58:38;;;;;;;10.03;6.80;;;3.80;1.00;;;;;;5060752;28;20206;-51
2022/04/20 03:01:03;;;;;;;9.77;6.80;;;3.80;1.00;;;;;;5072613;28;20197;-52
2022/04/20 03:03:29;;;;;;;10.97;7.37;;;3.70;1.00;;;;;;5072164;28;20216;-51
2022/04/20 03:05:54;;;;;;;9.77;6.60;;;3.70;1.00;;;;;;5069793;28;20205;-51
2022/04/20 03:08:21;;;;;;;13.77;7.20;;;3.60;1.00;;;;;;5056163;28;20677;-51
2022/04/20 03:10:46;;;;;;;10.67;7.10;;;3.60;27.90;;;;;;5070017;28;20240;-51
2022/04/20 03:13:12;;;;;;;13.60;6.97;;;3.60;18.30;;;;;;5064556;28;20440;-51
2022/04/20 03:15:37;;;;;;;11.20;5.97;;;3.50;25.40;;;;;;5064505;28;20190;-51
2022/04/20 03:18:03;;;;;;;14.90;6.97;;;3.50;30.50;;;;;;5056645;28;20198;-51
2022/04/20 03:20:29;;;;;;;8.13;6.07;;;3.50;57.20;;;;;;5072633;28;20205;-60
2022/04/20 03:22:54;;;;;;;13.50;7.83;;;3.50;52.20;;;;;;5055127;28;20301;-53
2022/04/20 03:25:20;;;;;;;12.90;7.70;;;3.50;83.20;;;;;;5067608;28;20208;-53
2022/04/20 03:27:45;;;;;;;13.63;7.20;;;3.50;55.10;;;;;;5060397;28;20228;-54
2022/04/20 03:30:12;;;;;;;11.30;6.63;;;3.50;64.00;;;;;;5065417;28;20201;-53
2022/04/20 03:32:39;;;;;;;14.30;8.00;;;3.50;57.50;;;;;;5066037;28;20649;-54
2022/04/20 03:35:05;;;;;;;15.60;8.33;;;3.40;53.80;;;;;;5064181;28;20412;-54
2022/04/20 03:37:30;;;;;;;12.43;6.93;;;3.40;55.60;;;;;;5063915;28;20547;-54
2022/04/20 03:39:57;;;;;;;10.97;7.10;;;3.30;99.90;;;;;;5063830;28;20193;-53
2022/04/20 03:42:22;;;;;;;12.73;7.10;;;3.30;99.90;;;;;;5055337;28;20175;-54
2022/04/20 03:44:48;;;;;;;11.83;6.93;;;3.30;99.90;;;;;;5071477;28;20431;-53
2022/04/20 03:47:13;;;;;;;9.70;5.83;;;3.30;99.90;;;;;;5071289;28;20229;-54
2022/04/20 03:49:39;;;;;;;12.83;7.40;;;3.30;99.90;;;;;;5058594;28;20255;-54
2022/04/20 03:52:06;;;;;;;13.50;7.77;;;3.20;99.90;;;;;;5065348;28;20281;-54
2022/04/20 03:54:32;;;;;;;14.93;7.50;;;3.30;99.90;;;;;;5069053;28;20213;-54
2022/04/20 03:57:03;;;;;;;10.40;6.83;;;3.20;99.90;;;;;;5071942;28;20456;-54
2022/04/20 03:59:29;;;;;;;15.20;7.10;;;3.20;99.90;;;;;;5066758;28;20189;-54
2022/04/20 04:01:55;;;;;;;12.80;7.90;;;3.20;99.90;;;;;;5059996;28;20516;-53
2022/04/20 04:04:21;;;;;;;12.70;7.20;;;3.20;99.90;;;;;;5059062;28;20534;-54
2022/04/20 04:06:47;;;;;;;13.67;7.07;;;3.20;99.90;;;;;;5063219;28;20894;-53
2022/04/20 04:09:13;;;;;;;10.43;6.90;;;3.20;99.90;;;;;;5067997;28;20458;-53
2022/04/20 04:11:39;;;;;;;11.57;6.47;;;3.20;99.90;;;;;;5063460;28;21095;-54
2022/04/20 04:14:05;;;;;;;12.23;7.60;;;3.20;99.90;;;;;;5071440;28;20564;-54
2022/04/20 04:16:34;;;;;;;12.70;6.80;;;3.20;99.90;;;;;;5074472;28;20205;-54
2022/04/20 04:18:59;;;;;;;11.73;7.17;;;3.20;99.90;;;;;;5069260;28;20186;-54
2022/04/20 04:21:25;;;;;;;8.80;6.80;;;3.20;99.90;;;;;;5051674;28;21152;-54
2022/04/20 04:23:50;;;;;;;10.13;7.27;;;3.30;99.90;;;;;;5063772;28;20201;-54
2022/04/20 04:26:16;;;;;;;13.27;7.43;;;3.30;91.80;;;;;;5055443;28;20201;-54
2022/04/20 04:28:41;;;;;;;11.53;6.43;;;3.30;95.60;;;;;;5069533;28;20243;-54
2022/04/20 04:31:07;;;;;;;11.50;6.90;;;3.30;75.90;;;;;;5060997;28;20684;-53
2022/04/20 04:33:34;;;;;;;12.73;6.87;;;3.30;99.00;;;;;;5059991;28;20178;-54
2022/04/20 04:36:00;;;;;;;10.70;6.50;;;3.30;80.90;;;;;;5059370;28;20190;-54
2022/04/20 04:38:26;;;;;;;13.30;7.30;;;3.40;75.20;;;;;;5060667;28;20469;-53
2022/04/20 04:40:53;;;;;;;11.93;7.20;;;3.40;59.30;;;;;;5062714;28;20431;-53
2022/04/20 04:43:18;;;;;;;12.43;7.17;;;3.50;73.50;;;;;;5062088;28;20202;-53
2022/04/20 04:48:38;;;;;;;17.23;7.53;;;3.60;41.80;;;;;;5070282;28;20192;-54
2022/04/20 04:51:06;;;;;;;10.07;7.40;;;3.70;30.50;;;;;;5070670;28;20469;-54
2022/04/20 04:53:32;;;;;;;10.50;6.67;;;3.80;10.70;;;;;;5061736;28;20452;-54
2022/04/20 04:55:57;;;;;;;8.73;6.80;;;3.90;1.00;;;;;;5062389;28;20801;-54
2022/04/20 04:58:23;;;;;;;9.10;6.60;;;4.00;1.00;;;;;;5054313;28;20198;-58
2022/04/20 05:00:49;;;;;;;10.40;7.20;;;4.10;1.00;;;;;;5066831;28;20201;-53
2022/04/20 05:03:16;;;;;;;10.30;7.30;;;4.10;1.00;;;;;;5058786;28;20251;-53
2022/04/20 05:05:42;;;;;;;14.63;7.70;;;4.30;1.00;;;;;;5068995;28;20977;-54
2022/04/20 05:08:07;;;;;;;10.73;6.97;;;4.40;1.00;;;;;;5063113;28;20502;-58
2022/04/20 05:10:33;;;;;;;12.30;7.80;;;4.50;1.00;;;;;;5059779;28;20528;-54
2022/04/20 05:13:00;;;;;;;11.23;6.30;;;4.70;1.00;;;;;;5069869;28;20174;-53
2022/04/20 05:15:26;;;;;;;10.37;6.77;;;4.80;1.00;;;;;;5055746;28;20273;-53
2022/04/20 05:17:52;;;;;;;9.73;6.90;;;4.90;1.00;;;;;;5054297;28;20534;-53
2022/04/20 05:20:19;;;;;;;9.40;6.50;;;5.10;1.00;;;;;;5058121;28;20790;-53
2022/04/20 05:22:48;;;;;;;11.60;6.80;;;5.20;1.00;;;;;;5059836;28;20202;-53
2022/04/20 05:25:14;;;;;;;10.23;6.50;;;5.40;1.00;;;;;;5061806;28;20431;-53
2022/04/20 05:27:40;;;;;;;7.93;6.40;;;5.60;1.00;;;;;;5061542;28;20440;-53
2022/04/20 05:30:08;;;;;;;7.57;5.30;;;5.70;1.00;;;;;;5057965;28;21028;-53
2022/04/20 05:32:33;;;;;;;9.20;5.90;;;5.90;1.00;;;;;;5058564;28;20194;-54
2022/04/20 05:34:59;;;;;;;8.33;5.30;;;6.10;99.90;;;;;;5060148;28;20436;-53
2022/04/20 05:42:53;;;;;;;6.83;4.37;;;6.90;99.90;;;;;;5061717;28;20544;-53
2022/04/20 05:45:19;;;;;;;8.80;5.00;;;7.10;99.90;;;;;;5069002;28;20522;-53
2022/04/20 05:47:45;;;;;;;10.20;5.47;;;7.40;99.90;;;;;;5069576;28;20220;-53
2022/04/20 05:50:11;;;;;;;8.70;5.17;;;7.60;99.90;;;;;;5060629;28;20561;-53
2022/04/20 05:52:37;;;;;;;14.63;4.90;;;7.80;99.90;;;;;;5065558;28;20420;-53
2022/04/20 05:55:03;;;;;;;14.53;5.77;;;8.00;99.90;;;;;;5064002;28;20190;-53
2022/04/20 05:57:29;;;;;;;7.23;4.50;;;8.20;99.90;;;;;;5078686;28;20196;-53
2022/04/20 05:59:54;;;;;;;6.70;5.03;;;8.30;99.90;;;;;;5068816;28;20442;-52
2022/04/20 06:02:20;;;;;;;13.10;4.80;;;8.40;99.90;;;;;;5068780;28;20194;-53
2022/04/20 06:04:45;;;;;;;6.13;4.57;;;8.50;99.90;;;;;;5054934;28;20695;-54
2022/04/20 06:07:12;;;;;;;5.53;4.93;;;8.70;99.90;;;;;;5057360;28;20240;-53
2022/04/20 06:09:37;;;;;;;11.17;5.17;;;8.80;99.90;;;;;;5063231;28;20221;-52
2022/04/20 06:12:03;;;;;;;6.40;4.07;;;9.00;99.90;;;;;;5065004;28;20447;-53
2022/04/20 06:14:28;;;;;;;7.63;5.67;;;9.20;99.90;;;;;;5066695;28;20220;-53
2022/04/20 06:16:54;;;;;;;8.57;4.93;;;9.30;99.90;;;;;;5067194;28;20186;-53
2022/04/20 06:19:19;;;;;;;9.27;4.93;;;9.60;99.90;;;;;;5057738;28;20178;-53
2022/04/20 06:21:45;;;;;;;7.30;4.40;;;9.80;99.90;;;;;;5058104;28;20265;-52
2022/04/20 06:24:10;;;;;;;7.70;4.37;;;9.90;99.90;;;;;;5069950;28;20239;-53
2022/04/20 06:26:36;;;;;;;7.63;4.70;;;10.00;99.90;;;;;;5068241;28;20264;-53
2022/04/20 06:29:01;;;;;;;6.90;4.50;;;10.10;99.90;;;;;;5072528;28;20280;-53
2022/04/20 06:31:27;;;;;;;7.70;4.87;;;10.10;99.90;;;;;;5067087;28;20205;-53
2022/04/20 06:33:58;;;;;;;7.47;5.37;;;10.20;99.90;;;;;;5068284;28;20192;-56
2022/04/20 06:36:25;;;;;;;6.17;4.50;;;10.20;99.90;;;;;;5069368;28;20254;-52
2022/04/20 06:38:50;;;;;;;5.63;4.60;;;10.40;99.90;;;;;;5070788;28;20450;-53
2022/04/20 06:41:16;;;;;;;8.10;4.83;;;10.50;99.90;;;;;;5070579;28;20435;-53
2022/04/20 06:43:42;;;;;;;5.73;3.90;;;10.60;99.90;;;;;;5065397;28;20296;-53
2022/04/20 06:46:07;;;;;;;6.77;4.63;;;10.80;99.90;;;;;;5072173;28;20197;-54
2022/04/20 06:48:33;;;;;;;8.13;4.80;;;11.00;99.90;;;;;;5068113;28;20194;-53
2022/04/20 06:51:00;;;;;;;6.40;4.50;;;11.20;99.90;;;;;;5062080;28;20214;-53
2022/04/20 06:58:54;;;;;;;5.00;3.93;;;11.70;99.90;;;;;;5066517;28;21290;-53
2022/04/20 07:01:19;;;;;;;7.53;4.27;;;12.00;99.90;;;;;;5064818;28;20478;-53
2022/04/20 07:03:45;;;;;;;8.10;4.40;;;12.20;99.90;;;;;;5068878;28;20655;-52
2022/04/20 07:06:10;;;;;;;8.00;4.50;;;12.50;99.90;;;;;;5069595;28;20173;-51
2022/04/20 07:08:36;;;;;;;8.83;4.40;;;12.40;99.90;;;;;;5067568;28;20549;-51
2022/04/20 07:11:03;;;;;;;5.30;4.00;;;12.60;99.90;;;;;;5068491;28;20241;-50
2022/04/20 07:13:29;;;;;;;7.37;4.50;;;12.80;99.90;;;;;;5068569;28;20947;-51
2022/04/20 07:15:55;;;;;;;5.50;3.93;;;13.20;99.90;;;;;;5066651;28;20448;-50
2022/04/20 07:18:20;;;;;;;8.60;3.67;;;13.60;99.90;;;;;;5066979;28;21017;-51
2022/04/20 07:20:46;;;;;;;5.40;4.20;;;14.00;99.90;;;;;;5077727;28;20326;-51
2022/04/20 07:23:11;;;;;;;3.60;3.10;;;14.40;99.90;;;;;;5074330;28;20285;-50
2022/04/20 07:25:38;;;;;;;6.30;3.87;;;14.60;99.90;;;;;;5070298;28;20189;-51
2022/04/20 07:28:07;;;;;;;9.20;4.07;;;14.70;99.90;;;;;;5071679;28;20654;-51
2022/04/20 07:30:34;;;;;;;4.45;3.25;;;14.70;99.90;;;;;;5074348;28;20451;-51
2022/04/20 07:33:00;;;;;;;5.90;3.33;;;14.90;99.90;;;;;;5066709;28;20643;-51
2022/04/20 07:35:25;;;;;;;5.27;3.80;;;15.10;99.90;;;;;;5076175;28;20760;-51
2022/04/20 07:37:51;;;;;;;5.30;3.20;;;15.20;99.90;;;;;;5080068;28;20427;-51
2022/04/20 07:40:16;;;;;;;4.30;3.30;;;15.30;99.90;;;;;;5072150;28;20196;-51
2022/04/20 07:42:42;;;;;;;3.33;2.83;;;15.60;99.90;;;;;;5072177;28;20912;-51
2022/04/20 07:45:09;;;;;;;6.77;3.33;;;15.80;99.90;;;;;;5080082;28;20256;-51
2022/04/20 07:47:34;;;;;;;4.80;3.30;;;16.00;99.90;;;;;;5073368;28;20631;-51
2022/04/20 07:50:18;;;;;;;12.20;4.23;;;16.20;99.90;;;;;;5075398;28;20478;-51
2022/04/20 07:52:49;;;;;;;3.40;2.53;;;16.50;99.90;;;;;;5072331;28;20690;-51
2022/04/20 07:55:25;;;;;;;3.70;2.63;;;16.60;99.90;;;;;;5072210;28;20396;-51
2022/04/20 07:57:53;;;;;;;5.30;2.73;;;16.70;99.90;;;;;;5072285;28;20400;-51
2022/04/20 08:00:20;;;;;;;4.30;2.60;;;16.90;99.90;;;;;;5075433;28;20567;-51
2022/04/20 08:02:46;;;;;;;3.30;2.53;;;17.10;99.90;;;;;;5074070;28;20477;-51
2022/04/20 08:05:14;;;;;;;3.40;2.73;;;17.20;99.90;;;;;;5071790;28;20964;-51
2022/04/20 08:07:41;;;;;;;3.17;2.40;;;17.40;99.90;;;;;;5064086;28;20462;-51
2022/04/20 08:10:08;;;;;;;6.20;2.40;;;17.50;99.90;;;;;;5071681;28;20475;-51
2022/04/20 08:12:44;;;;;;;2.10;1.97;;;17.80;99.90;;;;;;5072228;28;20396;-51
2022/04/20 08:15:11;;;;;;;5.07;2.17;;;17.90;99.90;;;;;;5074486;28;20809;-51
2022/04/20 08:17:37;;;;;;;2.33;1.80;;;18.20;99.90;;;;;;5070124;28;20440;-51
2022/04/20 08:20:08;;;;;;;4.50;2.17;;;18.40;99.90;;;;;;5073792;28;20435;-51
2022/04/20 08:22:40;;;;;;;2.60;2.30;;;18.20;99.90;;;;;;5071304;28;20435;-51
2022/04/20 08:25:07;;;;;;;6.60;2.40;;;18.20;99.90;;;;;;5064360;28;20475;-52
2022/04/20 08:27:32;;;;;;;2.77;2.50;;;18.10;99.90;;;;;;5070502;28;20539;-51
2022/04/20 08:29:58;;;;;;;2.53;2.20;;;18.20;99.90;;;;;;5071140;28;20463;-51
2022/04/20 08:32:24;;;;;;;4.60;2.33;;;18.20;99.90;;;;;;5062309;28;20229;-51
2022/04/20 08:34:50;;;;;;;3.60;2.53;;;18.10;99.90;;;;;;5067991;28;20688;-51
2022/04/20 08:37:16;;;;;;;3.53;2.80;;;18.30;99.90;;;;;;5071196;28;20458;-51
2022/04/20 08:39:42;;;;;;;4.27;2.10;;;18.30;99.90;;;;;;5071902;28;20440;-51
2022/04/20 08:42:12;;;;;;;4.67;2.90;;;18.50;99.90;;;;;;5071841;28;20190;-51
2022/04/20 08:44:45;;;;;;;2.77;2.10;;;18.60;99.90;;;;;;5071475;27;20474;-51
2022/04/20 08:47:21;;;;;;;2.37;2.17;;;18.40;99.90;;;;;;5071266;28;20412;-51
2022/04/20 08:49:48;;;;;;;2.70;2.10;;;18.50;99.90;;;;;;5070973;28;20402;-53
2022/04/20 08:52:37;;;;;;;8.00;2.50;;;18.70;99.90;;;;;;5070691;28;20450;-53
2022/04/20 08:55:07;;;;;;;3.67;2.40;;;18.50;99.90;;;;;;5074726;28;20478;-53
2022/04/20 08:57:34;;;;;;;3.30;2.00;;;18.70;99.90;;;;;;5065680;28;20420;-53
2022/04/20 09:00:00;;;;;;;6.00;2.23;;;19.20;99.90;;;;;;5070419;28;20489;-53
2022/04/20 09:02:28;;;;;;;5.23;2.50;;;19.60;99.90;;;;;;5070926;28;20958;-52
2022/04/20 09:04:54;;;;;;;2.80;2.23;;;19.40;99.90;;;;;;5070707;28;20465;-52
2022/04/20 09:07:19;;;;;;;4.60;3.10;;;18.80;99.90;;;;;;5070642;28;20431;-52
2022/04/20 09:09:45;;;;;;;5.23;2.13;;;18.30;99.90;;;;;;5068907;28;20485;-53
2022/04/20 09:12:16;;;;;;;4.07;2.20;;;18.40;99.90;;;;;;5073515;28;20193;-52
2022/04/20 09:14:43;;;;;;;7.33;2.60;;;18.70;99.90;;;;;;5072886;28;20205;-52
2022/04/20 09:17:13;;;;;;;2.20;2.10;;;19.00;99.90;;;;;;5071452;28;20446;-52
2022/04/20 09:19:39;;;;;;;4.17;3.23;;;19.10;99.90;;;;;;5068123;28;20530;-53
2022/04/20 09:22:30;;;;;;;3.93;2.23;;;19.20;99.90;;;;;;5070039;28;20528;-53
2022/04/20 09:25:08;;;;;;;4.37;3.00;;;19.30;99.90;;;;;;5068561;28;20436;-53
2022/04/20 09:27:38;;;;;;;5.37;2.93;;;19.30;99.90;;;;;;5069770;28;20936;-54
2022/04/20 09:30:09;;;;;;;5.90;2.80;;;19.50;99.90;;;;;;5068770;28;20551;-53
2022/04/20 09:32:38;;;;;;;5.10;3.00;;;19.40;99.90;;;;;;5070480;28;20455;-53
2022/04/20 09:35:07;;;;;;;4.40;2.90;;;19.30;99.90;;;;;;5070132;28;20940;-53
2022/04/20 09:37:33;;;;;;;3.10;2.60;;;19.10;99.90;;;;;;5068224;28;20835;-53
2022/04/20 09:40:00;;;;;;;6.77;2.63;;;18.90;99.90;;;;;;5069127;28;20452;-52
2022/04/20 09:42:26;;;;;;;4.13;2.70;;;18.80;99.90;;;;;;5066233;28;20490;-53
2022/04/20 09:45:00;;;;;;;9.33;2.83;;;18.60;99.90;;;;;;5070307;28;20448;-53
2022/04/20 09:50:18;;;;;;;3.87;2.80;;;17.80;99.90;;;;;;5069550;28;21224;-53
2022/04/20 09:52:48;;;;;;;4.53;2.90;;;17.50;99.90;;;;;;5071562;28;20444;-52
2022/04/20 09:55:18;;;;;;;3.93;3.10;;;17.50;99.90;;;;;;5068515;28;20439;-52
2022/04/20 09:57:44;;;;;;;7.27;2.90;;;17.30;99.90;;;;;;5069634;28;20435;-52
2022/04/20 10:00:14;;;;;;;4.27;2.80;;;17.20;99.90;;;;;;5069805;28;20777;-53
2022/04/20 10:02:51;;;;;;;4.03;2.57;;;17.40;99.90;;;;;;5070033;28;20227;-52
2022/04/20 10:05:18;;;;;;;4.73;2.93;;;17.70;99.90;;;;;;5070669;28;20442;-54
2022/04/20 10:07:44;;;;;;;4.10;2.37;;;18.00;99.90;;;;;;5069486;28;20470;-53
2022/04/20 10:10:10;;;;;;;5.50;2.43;;;18.30;99.90;;;;;;5068994;28;20495;-53
2022/04/20 10:12:42;;;;;;;9.90;2.43;;;18.40;99.90;;;;;;5069761;28;20192;-53
2022/04/20 10:17:56;;;;;;;5.23;2.27;;;19.00;99.90;;;;;;5070198;28;20407;-50
2022/04/20 10:20:26;;;;;;;3.63;2.67;;;19.20;99.90;;;;;;5070136;28;20416;-52
2022/04/20 10:22:53;;;;;;;2.97;2.67;;;19.20;99.90;;;;;;5068666;28;20435;-53
2022/04/20 10:25:18;;;;;;;6.67;2.60;;;19.30;99.90;;;;;;5068872;28;20440;-53
2022/04/20 10:28:13;;;;;;;7.57;2.43;;;19.30;99.90;;;;;;5069818;28;20507;-53
2022/04/20 10:31:00;;;;;;;3.53;2.40;;;19.80;99.90;;;;;;5068951;28;20274;-53
2022/04/20 10:33:30;;;;;;;3.17;2.87;;;20.20;99.90;;;;;;5068562;28;20443;-52
2022/04/20 10:36:04;;;;;;;3.10;2.27;;;20.20;99.90;;;;;;5069106;28;20467;-54
2022/04/20 10:38:31;;;;;;;2.80;2.30;;;20.40;99.90;;;;;;5068541;28;20415;-53
2022/04/20 10:41:17;;;;;;;4.03;2.67;;;20.50;99.90;;;;;;5072943;28;20497;-54
2022/04/20 10:43:43;;;;;;;3.57;2.10;;;20.50;99.90;;;;;;5087197;28;20427;-53
2022/04/20 10:46:17;;;;;;;5.43;2.20;;;20.60;99.90;;;;;;5074927;28;20761;-53
2022/04/20 10:49:00;;;;;;;2.90;2.07;;;21.00;99.90;;;;;;5049728;28;20433;-52
2022/04/20 10:51:46;;;;;;;10.30;2.00;;;21.40;99.90;;;;;;5051129;28;20449;-53
2022/04/20 10:54:17;;;;;;;4.03;2.50;;;21.70;99.90;;;;;;5073339;28;20782;-53
2022/04/20 10:57:09;;;;;;;12.53;2.70;;;22.00;99.90;;;;;;5072902;28;20440;-53
2022/04/20 10:59:35;;;;;;;3.23;2.07;;;21.90;99.90;;;;;;5073642;28;21087;-53
2022/04/20 11:02:03;;;;;;;4.17;1.97;;;22.10;99.90;;;;;;5076807;28;20443;-53
2022/04/20 11:04:37;;;;;;;3.20;2.13;;;22.30;99.90;;;;;;5088112;28;20454;-53
2022/04/20 11:07:03;;;;;;;2.77;2.40;;;22.40;99.90;;;;;;5071232;28;20450;-53
2022/04/20 11:10:02;;;;;;;7.57;3.27;;;22.40;99.90;;;;;;5072453;28;20482;-53
2022/04/20 11:18:38;;;;;;;5.80;2.20;;;21.80;99.90;;;;;;5051534;28;20477;-53
2022/04/20 11:21:07;;;;;;;4.30;2.30;;;21.70;99.90;;;;;;5061173;28;20443;-53
2022/04/20 11:23:52;;;;;;;4.03;2.50;;;21.50;99.90;;;;;;5079557;28;20431;-53
2022/04/20 11:26:28;;;;;;;2.33;2.10;;;21.20;99.90;;;;;;5071232;28;20200;-53
2022/04/20 11:28:59;;;;;;;2.47;2.10;;;21.40;99.90;;;;;;5068126;28;20435;-53
2022/04/20 11:31:25;;;;;;;3.67;2.40;;;21.60;99.90;;;;;;5069846;28;20475;-53
2022/04/20 11:33:52;;;;;;;3.33;2.10;;;21.80;99.90;;;;;;5075203;28;20485;-53
2022/04/20 11:36:18;;;;;;;4.60;2.17;;;21.80;99.90;;;;;;5074441;28;20522;-53
2022/04/20 11:38:46;;;;;;;2.33;2.03;;;22.00;99.90;;;;;;5069483;28;20479;-52
2022/04/20 11:41:13;;;;;;;3.70;2.67;;;21.80;99.90;;;;;;5068096;28;21239;-53
2022/04/20 11:43:40;;;;;;;3.60;2.30;;;21.80;99.90;;;;;;5070082;28;20479;-53
2022/04/20 11:46:08;;;;;;;8.00;2.60;;;22.30;99.90;;;;;;5071795;28;20443;-53
2022/04/20 11:48:37;;;;;;;3.33;2.13;;;22.60;99.90;;;;;;5071590;28;20450;-53
2022/04/20 11:51:09;;;;;;;16.23;2.70;;;22.80;99.90;;;;;;5070791;28;20489;-53
2022/04/20 11:53:38;;;;;;;5.23;2.20;;;23.30;99.90;;;;;;5075186;28;21043;-53
2022/04/20 11:56:05;;;;;;;3.80;2.37;;;23.40;99.90;;;;;;5071210;28;20511;-53
2022/04/20 11:58:31;;;;;;;3.20;2.17;;;23.50;99.90;;;;;;5072274;28;20435;-54
2022/04/20 12:01:05;;;;;;;2.43;1.80;;;23.50;99.90;;;;;;5070996;28;20447;-53
2022/04/20 12:03:31;;;;;;;3.93;2.47;;;23.00;99.90;;;;;;5082389;28;20835;-54
2022/04/20 12:06:04;;;;;;;11.63;2.50;;;22.30;99.90;;;;;;5072043;28;20420;-53
2022/04/20 12:08:36;;;;;;;3.13;1.90;;;21.70;99.90;;;;;;5071452;28;20880;-53
2022/04/20 12:11:06;;;;;;;4.40;2.30;;;21.30;99.90;;;;;;5073198;28;20523;-53
2022/04/20 12:13:32;;;;;;;2.67;2.10;;;21.00;99.90;;;;;;5070168;28;21392;-53
2022/04/20 12:16:06;;;;;;;2.40;1.90;;;21.00;99.90;;;;;;5070118;28;20436;-53
2022/04/20 12:18:37;;;;;;;3.57;2.20;;;20.70;99.90;;;;;;5067494;28;20455;-53
2022/04/20 12:21:24;;;;;;;2.00;1.80;;;20.40;99.90;;;;;;5067559;28;20416;-53
2022/04/20 12:23:49;;;;;;;4.07;2.30;;;20.20;99.90;;;;;;5070797;28;20520;-53
2022/04/20 12:26:15;;;;;;;5.33;2.30;;;20.00;99.90;;;;;;5071071;28;20521;-53
2022/04/20 12:28:43;;;;;;;7.10;2.80;;;19.70;99.90;;;;;;5074577;28;20198;-53
2022/04/20 12:31:12;;;;;;;3.17;1.97;;;19.50;99.90;;;;;;5070885;28;20213;-53
2022/04/20 12:33:39;;;;;;;2.90;1.80;;;19.30;99.90;;;;;;5069302;28;20443;-53
2022/04/20 12:36:09;;;;;;;2.33;1.97;;;19.00;99.90;;;;;;5070906;28;20435;-54
2022/04/20 12:38:53;;;;;;;2.50;2.23;;;18.60;99.90;;;;;;5070753;28;20439;-55
2022/04/20 12:41:38;;;;;;;2.40;2.20;;;18.60;99.90;;;;;;5071137;28;20995;-53
2022/04/20 12:44:46;;;;;;;3.40;2.20;;;19.40;99.90;;;;;;5070525;28;20795;-54
2022/04/20 12:47:12;;;;;;;3.07;1.87;;;20.70;99.90;;;;;;5053065;28;20981;-54
2022/04/20 12:49:42;;;;;;;2.30;2.10;;;21.90;99.90;;;;;;5069875;28;20578;-53
2022/04/20 12:52:13;;;;;;;3.67;2.00;;;22.40;99.90;;;;;;5070329;28;20271;-54
2022/04/20 12:54:39;;;;;;;2.33;2.13;;;22.50;99.90;;;;;;5070394;28;20435;-54
2022/04/20 13:03:02;;;;;;;8.30;2.23;;;23.20;99.90;;;;;;5071390;28;20437;-53
2022/04/20 13:05:35;;;;;;;7.23;2.07;;;23.60;99.90;;;;;;5071090;28;20472;-53
2022/04/20 13:08:02;;;;;;;1.97;1.70;;;23.50;99.90;;;;;;5080757;28;20408;-53
2022/04/20 13:10:33;;;;;;;3.80;2.30;;;23.60;99.90;;;;;;5070691;28;20501;-53
2022/04/20 13:12:59;;;;;;;1.90;1.80;;;23.40;99.90;;;;;;5069921;28;20530;-53
2022/04/20 13:15:25;;;;;;;5.03;1.87;;;23.20;99.90;;;;;;5082640;28;20434;-53
2022/04/20 13:17:51;;;;;;;1.90;1.60;;;22.80;99.90;;;;;;5069677;28;20620;-54
2022/04/20 13:20:18;;;;;;;3.50;2.23;;;23.00;99.90;;;;;;5068965;28;20637;-53
2022/04/20 13:22:44;;;;;;;9.50;1.90;;;22.90;99.90;;;;;;5071509;28;20451;-53
2022/04/20 13:27:55;;;;;;;2.17;1.40;;;23.20;99.90;;;;;;5070917;28;20920;-53